Time;durP1;ratioP1;P1;durP2;ratioP2;P2;SDS_P1;SDS_P2;PMS_P1;PMS_P2;Temp;Humidity;BMP_temperature;BMP_pressure;BME280_temperature;BME280_humidity;BME280_pressure;Samples;Min_cycle;Max_cycle;Signal;HPM_P1;HPM_P2
2021/11/15 00:01:58;;;;;;;55.42;34.75;;;;;;;7.87;100.00;102548.81;5064389;28;20025;-63
2021/11/15 00:04:24;;;;;;;55.20;36.05;;;;;;;7.86;100.00;102539.13;5060509;28;20048;-63
2021/11/15 00:06:49;;;;;;;54.53;35.83;;;;;;;7.84;100.00;102548.69;5063263;28;20032;-64
2021/11/15 00:09:15;;;;;;;57.42;35.22;;;;;;;7.85;100.00;102542.59;5061671;28;20028;-63
2021/11/15 00:11:41;;;;;;;54.63;35.03;;;;;;;7.81;100.00;102543.31;5062132;28;20056;-64
2021/11/15 00:14:07;;;;;;;54.45;34.40;;;;;;;7.81;100.00;102541.56;5061375;28;20066;-64
2021/11/15 00:16:33;;;;;;;51.03;32.55;;;;;;;7.82;100.00;102542.44;5062216;28;20020;-64
2021/11/15 00:18:58;;;;;;;52.00;34.17;;;;;;;7.78;100.00;102537.91;5061357;28;20073;-64
2021/11/15 00:21:24;;;;;;;50.75;33.65;;;;;;;7.77;100.00;102536.09;5062596;28;20464;-63
2021/11/15 00:23:50;;;;;;;51.83;33.03;;;;;;;7.77;100.00;102541.38;5062412;28;20032;-63
2021/11/15 00:26:15;;;;;;;51.72;32.88;;;;;;;7.75;100.00;102533.41;5060335;28;20037;-63
2021/11/15 00:28:41;;;;;;;50.65;32.50;;;;;;;7.72;100.00;102540.25;5063314;28;20029;-63
2021/11/15 00:31:07;;;;;;;50.85;32.63;;;;;;;7.70;100.00;102531.41;5060630;28;20178;-63
2021/11/15 00:33:32;;;;;;;49.20;32.45;;;;;;;7.67;100.00;102530.47;5063412;28;20048;-63
2021/11/15 00:35:58;;;;;;;51.45;32.75;;;;;;;7.65;100.00;102531.22;5062924;28;20036;-63
2021/11/15 00:38:23;;;;;;;49.30;32.03;;;;;;;7.63;100.00;102531.16;5066228;28;20100;-67
2021/11/15 00:40:48;;;;;;;48.50;30.98;;;;;;;7.66;100.00;102536.53;5065939;28;20027;-69
2021/11/15 00:43:15;;;;;;;49.17;32.83;;;;;;;7.66;100.00;102533.03;5063608;28;20071;-67
2021/11/15 00:45:40;;;;;;;46.05;30.02;;;;;;;7.66;100.00;102530.41;5067147;28;20120;-68
2021/11/15 00:48:06;;;;;;;47.92;31.02;;;;;;;7.63;100.00;102531.16;5063880;28;20104;-68
2021/11/15 00:50:32;;;;;;;48.58;29.50;;;;;;;7.63;100.00;102535.50;5067518;28;20099;-69
2021/11/15 00:52:59;;;;;;;47.83;30.40;;;;;;;7.61;100.00;102537.19;5064425;28;20025;-69
2021/11/15 00:55:26;;;;;;;49.03;31.38;;;;;;;7.62;100.00;102533.72;5065723;28;20021;-67
2021/11/15 00:57:51;;;;;;;45.53;29.65;;;;;;;7.59;100.00;102538.84;5065407;28;20021;-70
2021/11/15 01:00:21;;;;;;;45.95;29.50;;;;;;;7.56;100.00;102531.72;5064837;28;20032;-70
2021/11/15 01:02:46;;;;;;;44.63;27.92;;;;;;;7.56;100.00;102538.69;5065697;28;20491;-70
2021/11/15 01:05:12;;;;;;;46.58;29.25;;;;;;;7.58;100.00;102537.03;5064576;28;20025;-68
2021/11/15 01:07:38;;;;;;;47.00;30.52;;;;;;;7.55;100.00;102540.44;5066941;28;20107;-70
2021/11/15 01:10:06;;;;;;;47.38;29.58;;;;;;;7.51;100.00;102538.50;5063404;28;20119;-69
2021/11/15 01:12:32;;;;;;;45.72;29.00;;;;;;;7.52;100.00;102542.94;5067048;28;20107;-69
2021/11/15 01:14:57;;;;;;;46.17;29.02;;;;;;;7.49;100.00;102533.16;5064123;28;20052;-70
2021/11/15 01:17:22;;;;;;;46.80;29.27;;;;;;;7.48;100.00;102547.19;5065328;28;20021;-67
2021/11/15 01:19:48;;;;;;;45.90;28.00;;;;;;;7.51;100.00;102551.66;5065475;28;20050;-64
2021/11/15 01:22:13;;;;;;;45.05;29.00;;;;;;;7.53;100.00;102543.81;5063925;28;20111;-63
2021/11/15 01:24:39;;;;;;;47.55;29.10;;;;;;;7.45;100.00;102540.88;5066419;28;20372;-65
2021/11/15 01:27:04;;;;;;;45.15;28.35;;;;;;;7.48;100.00;102543.63;5063285;28;20033;-65
2021/11/15 01:29:30;;;;;;;45.10;28.15;;;;;;;7.43;100.00;102543.44;5066404;28;20024;-63
2021/11/15 01:31:57;;;;;;;45.67;28.00;;;;;;;7.44;100.00;102549.59;5063995;28;20080;-63
2021/11/15 01:34:25;;;;;;;43.72;28.17;;;;;;;7.41;100.00;102554.72;5065066;28;20465;-64
2021/11/15 01:36:51;;;;;;;46.47;29.38;;;;;;;7.45;100.00;102547.00;5064759;28;20024;-65
2021/11/15 01:39:16;;;;;;;43.95;28.00;;;;;;;7.47;99.82;102544.44;5064174;28;20384;-64
2021/11/15 01:41:41;;;;;;;45.97;29.88;;;;;;;7.42;100.00;102548.63;5066180;28;20028;-63
2021/11/15 01:44:07;;;;;;;45.05;28.55;;;;;;;7.42;100.00;102549.50;5063137;28;20883;-64
2021/11/15 01:46:32;;;;;;;44.75;28.77;;;;;;;7.37;100.00;102543.16;5065445;28;20056;-63
2021/11/15 01:48:57;;;;;;;46.05;29.23;;;;;;;7.28;100.00;102550.63;5063500;28;20121;-64
2021/11/15 01:51:23;;;;;;;42.58;26.73;;;;;;;7.36;100.00;102549.25;5064656;28;20552;-64
2021/11/15 01:53:48;;;;;;;45.08;28.17;;;;;;;7.25;100.00;102543.53;5064912;28;20028;-65
2021/11/15 01:56:14;;;;;;;43.80;27.95;;;;;;;7.25;100.00;102543.53;5063203;28;20025;-65
2021/11/15 01:58:39;;;;;;;44.15;28.42;;;;;;;7.28;100.00;102545.38;5065686;28;20025;-64
2021/11/15 02:01:05;;;;;;;45.25;28.40;;;;;;;7.23;100.00;102541.66;5062964;28;20063;-63
2021/11/15 02:03:32;;;;;;;46.40;28.90;;;;;;;7.22;100.00;102535.47;5065246;28;20050;-64
2021/11/15 02:05:59;;;;;;;44.05;26.38;;;;;;;7.20;100.00;102529.25;5063196;28;20541;-64
2021/11/15 02:08:24;;;;;;;46.10;27.83;;;;;;;7.11;100.00;102523.59;5064665;28;20025;-64
2021/11/15 02:10:50;;;;;;;44.35;28.17;;;;;;;7.19;100.00;102527.44;5063688;28;20036;-65
2021/11/15 02:13:18;;;;;;;44.25;27.58;;;;;;;7.09;100.00;102518.25;5064441;28;20107;-64
2021/11/15 02:15:45;;;;;;;47.45;28.98;;;;;;;7.06;100.00;102519.81;5065333;28;20078;-63
2021/11/15 02:18:10;;;;;;;47.78;29.23;;;;;;;7.03;100.00;102507.44;5063955;28;20021;-64
2021/11/15 02:20:44;;;;;;;44.63;28.67;;;;;;;7.01;100.00;102511.75;5063314;28;20050;-65
2021/11/15 02:23:10;;;;;;;44.85;28.88;;;;;;;7.02;100.00;102512.63;5064854;28;20032;-65
2021/11/15 02:25:35;;;;;;;46.83;30.13;;;;;;;6.93;100.00;102511.41;5063164;28;20025;-64
2021/11/15 02:28:00;;;;;;;46.85;29.30;;;;;;;6.91;100.00;102505.16;5063417;28;20056;-64
2021/11/15 02:30:27;;;;;;;46.22;29.77;;;;;;;6.90;100.00;102498.13;5064774;28;20021;-64
2021/11/15 02:32:54;;;;;;;46.45;29.83;;;;;;;6.90;100.00;102500.75;5062103;28;20159;-63
2021/11/15 02:35:21;;;;;;;47.35;30.00;;;;;;;6.89;100.00;102509.44;5065208;28;20074;-64
2021/11/15 02:37:47;;;;;;;47.45;29.95;;;;;;;6.93;100.00;102498.25;5062065;28;20115;-65
2021/11/15 02:40:16;;;;;;;47.50;30.55;;;;;;;6.92;100.00;102503.44;5064653;28;20103;-64
2021/11/15 02:42:43;;;;;;;46.53;29.05;;;;;;;6.90;100.00;102503.38;5062276;28;20115;-64
2021/11/15 02:45:09;;;;;;;47.60;29.45;;;;;;;6.92;100.00;102506.06;5064470;28;20056;-65
2021/11/15 02:47:35;;;;;;;46.67;29.10;;;;;;;6.88;100.00;102507.63;5063009;28;20028;-63
2021/11/15 02:50:02;;;;;;;49.63;32.13;;;;;;;6.80;100.00;102507.28;5062973;28;20051;-64
2021/11/15 02:52:28;;;;;;;49.05;31.25;;;;;;;6.78;100.00;102502.78;5063987;28;20043;-64
2021/11/15 02:54:58;;;;;;;50.33;32.45;;;;;;;6.80;100.00;102506.38;5061794;28;20033;-64
2021/11/15 02:57:25;;;;;;;50.88;32.47;;;;;;;6.84;100.00;102503.06;5064202;28;20032;-64
2021/11/15 02:59:51;;;;;;;49.80;31.85;;;;;;;6.89;100.00;102512.06;5061204;28;20017;-64
2021/11/15 03:02:16;;;;;;;51.20;34.00;;;;;;;6.81;100.00;102508.19;5064820;28;20077;-65
2021/11/15 03:04:44;;;;;;;50.05;32.85;;;;;;;6.80;100.00;102511.63;5061550;28;20048;-63
2021/11/15 03:07:09;;;;;;;52.97;32.95;;;;;;;6.74;100.00;102506.09;5064106;28;20025;-64
2021/11/15 03:09:38;;;;;;;50.50;32.03;;;;;;;6.76;100.00;102507.09;5062428;28;20023;-67
2021/11/15 03:12:04;;;;;;;52.53;33.08;;;;;;;6.78;100.00;102508.94;5063145;28;20056;-64
2021/11/15 03:14:29;;;;;;;50.55;33.33;;;;;;;6.76;100.00;102507.09;5063514;28;20063;-64
2021/11/15 03:16:55;;;;;;;52.90;33.58;;;;;;;6.79;100.00;102510.75;5061576;28;20056;-70
2021/11/15 03:19:20;;;;;;;53.35;34.92;;;;;;;6.74;100.00;102512.28;5064535;28;20380;-70
2021/11/15 03:21:46;;;;;;;52.40;34.25;;;;;;;6.77;100.00;102508.88;5061191;28;20020;-70
2021/11/15 03:24:11;;;;;;;56.00;35.72;;;;;;;6.68;100.00;102506.72;5059148;28;20028;-70
2021/11/15 03:26:36;;;;;;;54.55;35.65;;;;;;;6.68;100.00;102509.34;5064550;28;20020;-70
2021/11/15 03:29:02;;;;;;;55.13;35.72;;;;;;;6.71;100.00;102511.22;5059874;28;20464;-69
2021/11/15 03:31:30;;;;;;;55.00;34.50;;;;;;;6.69;100.00;102511.16;5061557;28;20477;-69
2021/11/15 03:34:14;;;;;;;54.65;35.67;;;;;;;6.71;100.00;102511.22;5060620;28;20562;-70
2021/11/15 03:36:41;;;;;;;54.17;35.05;;;;;;;6.69;100.00;102507.63;5062352;28;20025;-69
2021/11/15 03:39:08;;;;;;;53.83;34.63;;;;;;;6.68;100.00;102511.06;5063649;28;20430;-69
2021/11/15 03:41:36;;;;;;;51.67;33.03;;;;;;;6.66;100.00;102508.38;5061231;28;20020;-69
2021/11/15 03:44:01;;;;;;;51.10;33.42;;;;;;;6.61;100.00;102510.81;5064249;28;20031;-69
2021/11/15 03:46:27;;;;;;;53.13;33.47;;;;;;;6.67;100.00;102517.16;5061148;28;20021;-70
2021/11/15 03:48:52;;;;;;;51.97;32.60;;;;;;;6.61;100.00;102516.06;5063709;28;20060;-70
2021/11/15 03:51:19;;;;;;;52.10;31.85;;;;;;;6.61;100.00;102500.28;5061649;28;20430;-69
2021/11/15 03:53:44;;;;;;;49.65;31.20;;;;;;;6.59;100.00;102506.28;5062589;28;20025;-69
2021/11/15 03:56:13;;;;;;;51.17;32.88;;;;;;;6.55;100.00;102505.25;5062819;28;20415;-66
2021/11/15 03:58:44;;;;;;;52.60;32.90;;;;;;;6.50;100.00;102511.13;5061580;28;20072;-69
2021/11/15 04:01:11;;;;;;;51.88;33.75;;;;;;;6.47;100.00;102519.75;5063082;28;20100;-69
2021/11/15 04:03:39;;;;;;;52.85;33.50;;;;;;;6.47;100.00;102514.50;5061135;28;20388;-65
2021/11/15 04:06:21;;;;;;;52.92;34.42;;;;;;;6.45;100.00;102516.13;5063509;28;20079;-66
2021/11/15 04:08:47;;;;;;;52.22;33.67;;;;;;;6.44;100.00;102517.88;5062773;28;20048;-63
2021/11/15 04:11:13;;;;;;;52.22;32.83;;;;;;;6.46;100.00;102525.81;5065269;28;20016;-63
2021/11/15 04:13:41;;;;;;;51.90;33.15;;;;;;;6.44;100.00;102530.13;5065633;28;20036;-63
2021/11/15 04:16:11;;;;;;;52.25;33.55;;;;;;;6.44;100.00;102527.50;5067111;28;20024;-65
2021/11/15 04:18:40;;;;;;;54.63;35.38;;;;;;;6.43;100.00;102528.31;5065404;28;20064;-67
2021/11/15 04:21:07;;;;;;;53.15;34.17;;;;;;;6.43;100.00;102529.19;5067437;28;20029;-63
2021/11/15 04:23:33;;;;;;;52.72;33.75;;;;;;;6.43;100.00;102530.94;5064457;28;20038;-63
2021/11/15 04:25:58;;;;;;;53.95;34.90;;;;;;;6.43;100.00;102520.44;5068122;28;20411;-63
2021/11/15 04:28:24;;;;;;;51.58;33.38;;;;;;;6.45;100.00;102530.19;5064600;28;20025;-63
2021/11/15 04:30:49;;;;;;;52.88;34.05;;;;;;;6.42;100.00;102530.03;5066656;28;20021;-63
2021/11/15 04:33:14;;;;;;;51.95;34.30;;;;;;;6.43;100.00;102526.56;5065742;28;20503;-63
2021/11/15 04:35:40;;;;;;;53.83;33.90;;;;;;;6.42;100.00;102527.41;5065556;28;20372;-64
2021/11/15 04:38:06;;;;;;;54.28;35.10;;;;;;;6.42;100.00;102529.13;5066785;28;20522;-63
2021/11/15 04:40:32;;;;;;;53.97;35.75;;;;;;;6.43;100.00;102530.94;5064560;28;20110;-63
2021/11/15 04:42:59;;;;;;;52.13;33.53;;;;;;;6.42;100.00;102529.13;5067415;28;20056;-63
2021/11/15 04:45:24;;;;;;;53.95;35.75;;;;;;;6.46;100.00;102531.06;5064107;28;20033;-63
2021/11/15 04:47:49;;;;;;;54.63;35.63;;;;;;;6.40;100.00;102525.53;5063916;28;20387;-66
2021/11/15 04:50:15;;;;;;;53.25;34.17;;;;;;;6.41;100.00;102527.34;5063973;28;20464;-67
2021/11/15 04:52:41;;;;;;;54.42;35.00;;;;;;;6.40;100.00;102530.78;5067231;28;20086;-69
2021/11/15 04:55:09;;;;;;;52.42;33.20;;;;;;;6.39;100.00;102527.28;5064261;28;20142;-69
2021/11/15 04:57:34;;;;;;;54.55;35.70;;;;;;;6.37;100.00;102539.41;5063741;28;20418;-69
2021/11/15 05:00:00;;;;;;;51.47;33.97;;;;;;;6.39;100.00;102529.91;5066473;28;20032;-68
2021/11/15 05:02:27;;;;;;;51.40;32.33;;;;;;;6.35;100.00;102532.28;5065263;28;20020;-69
2021/11/15 05:04:53;;;;;;;53.13;34.63;;;;;;;6.33;100.00;102528.69;5065297;28;20115;-68
2021/11/15 05:07:19;;;;;;;51.22;33.38;;;;;;;6.35;100.00;102524.41;5065674;28;20029;-69
2021/11/15 05:09:44;;;;;;;49.65;31.35;;;;;;;6.30;100.00;102528.53;5064146;28;20033;-69
2021/11/15 05:12:09;;;;;;;52.53;34.03;;;;;;;6.28;100.00;102526.72;5066978;28;20021;-69
2021/11/15 05:14:35;;;;;;;51.92;33.97;;;;;;;6.24;100.00;102530.03;5063673;28;20028;-68
2021/11/15 05:17:00;;;;;;;52.17;32.50;;;;;;;6.25;100.00;102531.84;5065736;28;20028;-69
2021/11/15 05:19:25;;;;;;;53.28;34.47;;;;;;;6.29;100.00;102527.63;5063741;28;20498;-68
2021/11/15 05:21:51;;;;;;;52.10;33.45;;;;;;;6.29;100.00;102530.25;5066727;28;20117;-70
2021/11/15 05:24:16;;;;;;;52.42;33.08;;;;;;;6.25;100.00;102530.94;5063146;28;20036;-69
2021/11/15 05:26:42;;;;;;;53.28;34.95;;;;;;;6.26;100.00;102527.47;5064632;28;20464;-70
2021/11/15 05:29:07;;;;;;;55.15;35.78;;;;;;;6.23;100.00;102533.50;5065805;28;20029;-63
2021/11/15 05:31:34;;;;;;;52.47;33.50;;;;;;;6.25;100.00;102537.09;5064636;28;20150;-64
2021/11/15 05:34:02;;;;;;;54.80;34.97;;;;;;;6.25;100.00;102538.84;5064218;28;20048;-63
2021/11/15 05:36:28;;;;;;;55.97;35.40;;;;;;;6.25;100.00;102534.47;5065762;28;20028;-65
2021/11/15 05:38:53;;;;;;;54.92;37.08;;;;;;;6.24;100.00;102534.41;5063305;28;20078;-63
2021/11/15 05:41:18;;;;;;;54.17;35.40;;;;;;;6.23;100.00;102537.84;5066287;28;20028;-65
2021/11/15 05:43:44;;;;;;;55.05;37.17;;;;;;;6.17;100.00;102537.53;5063086;28;20064;-64
2021/11/15 05:46:10;;;;;;;56.63;36.40;;;;;;;6.22;100.00;102539.56;5065703;28;20410;-63
2021/11/15 05:48:35;;;;;;;57.85;36.63;;;;;;;6.20;100.00;102535.06;5064018;28;20089;-63
2021/11/15 05:51:00;;;;;;;55.15;35.85;;;;;;;6.21;100.00;102535.13;5064432;28;20032;-63
2021/11/15 05:53:26;;;;;;;55.92;36.85;;;;;;;6.21;100.00;102529.88;5065046;28;20013;-63
2021/11/15 05:55:51;;;;;;;56.75;36.25;;;;;;;6.21;100.00;102529.88;5063254;28;20439;-64
2021/11/15 05:58:17;;;;;;;55.20;36.15;;;;;;;6.24;100.00;102529.13;5066314;28;20029;-63
2021/11/15 06:00:43;;;;;;;56.38;37.33;;;;;;;6.22;100.00;102533.44;5062882;28;20480;-65
2021/11/15 06:03:08;;;;;;;56.67;36.85;;;;;;;6.18;100.00;102531.47;5065282;28;20033;-63
2021/11/15 06:05:34;;;;;;;56.90;36.53;;;;;;;6.23;100.00;102529.97;5063969;28;20032;-66
2021/11/15 06:07:59;;;;;;;53.22;34.67;;;;;;;6.23;100.00;102522.06;5063755;28;20104;-66
2021/11/15 06:10:25;;;;;;;55.13;36.28;;;;;;;6.20;100.00;102520.19;5065128;28;20085;-63
2021/11/15 06:12:51;;;;;;;53.20;34.15;;;;;;;6.20;100.00;102521.94;5062562;28;20094;-63
2021/11/15 06:15:18;;;;;;;56.97;36.85;;;;;;;6.19;100.00;102528.91;5065760;28;20056;-63
2021/11/15 06:17:44;;;;;;;53.78;34.80;;;;;;;6.20;100.00;102520.19;5062538;28;20090;-63
2021/11/15 06:20:11;;;;;;;56.60;36.30;;;;;;;6.19;100.00;102525.38;5065142;28;20029;-63
2021/11/15 06:22:37;;;;;;;58.17;37.85;;;;;;;6.18;100.00;102524.47;5063176;28;20387;-63
2021/11/15 06:25:04;;;;;;;54.88;35.58;;;;;;;6.17;100.00;102525.31;5063845;28;20411;-63
2021/11/15 06:27:29;;;;;;;59.47;37.60;;;;;;;6.15;100.00;102526.97;5065913;28;20383;-63
2021/11/15 06:29:54;;;;;;;55.17;35.83;;;;;;;6.16;100.00;102526.16;5071431;28;20024;-63
2021/11/15 06:32:20;;;;;;;58.28;37.95;;;;;;;6.18;100.00;102539.34;5071676;28;20074;-63
2021/11/15 06:34:45;;;;;;;54.72;35.97;;;;;;;6.20;100.00;102538.56;5071763;28;20056;-63
2021/11/15 06:37:11;;;;;;;55.70;36.88;;;;;;;6.18;100.00;102548.13;5072145;28;20025;-63
2021/11/15 06:39:36;;;;;;;55.85;36.53;;;;;;;6.23;100.00;102550.97;5072140;28;20025;-64
2021/11/15 06:42:02;;;;;;;59.83;36.78;;;;;;;6.20;100.00;102541.22;5072206;28;20024;-62
2021/11/15 06:44:29;;;;;;;59.95;38.05;;;;;;;6.12;100.00;102545.19;5071655;28;20068;-64
2021/11/15 06:46:55;;;;;;;60.75;37.65;;;;;;;6.11;100.00;102548.63;5072604;28;20115;-62
2021/11/15 06:49:21;;;;;;;60.13;36.47;;;;;;;6.08;100.00;102543.25;5072084;28;20368;-63
2021/11/15 06:51:47;;;;;;;60.88;36.50;;;;;;;6.13;100.00;102548.72;5070680;28;20024;-64
2021/11/15 06:54:14;;;;;;;60.85;37.63;;;;;;;6.10;100.00;102544.19;5064601;28;20028;-63
2021/11/15 06:56:39;;;;;;;62.50;38.10;;;;;;;6.07;100.00;102542.34;5066127;28;20063;-64
2021/11/15 06:59:04;;;;;;;61.38;37.78;;;;;;;6.11;100.00;102552.16;5071987;28;20056;-64
2021/11/15 07:01:35;;;;;;;61.90;38.05;;;;;;;6.17;100.00;102556.81;5072008;28;20024;-63
2021/11/15 07:04:01;;;;;;;60.90;38.22;;;;;;;6.15;100.00;102553.22;5071335;28;20033;-63
2021/11/15 07:06:26;;;;;;;60.40;37.35;;;;;;;6.15;100.00;102555.84;5070642;28;20093;-64
2021/11/15 07:08:51;;;;;;;60.15;36.63;;;;;;;6.15;100.00;102560.22;5071477;28;20020;-61
2021/11/15 07:11:17;;;;;;;63.90;39.05;;;;;;;6.11;100.00;102565.28;5066987;28;20032;-64
2021/11/15 07:13:42;;;;;;;63.17;39.88;;;;;;;6.10;100.00;102567.84;5070499;28;20032;-64
2021/11/15 07:16:08;;;;;;;62.97;38.88;;;;;;;6.11;100.00;102567.03;5071489;28;20050;-63
2021/11/15 07:18:33;;;;;;;60.92;37.78;;;;;;;6.09;100.00;102560.81;5069762;28;20074;-64
2021/11/15 07:21:00;;;;;;;61.92;37.38;;;;;;;6.10;100.00;102562.59;5071855;28;20027;-63
2021/11/15 07:23:25;;;;;;;61.13;35.38;;;;;;;6.10;100.00;102565.22;5071028;28;20020;-63
2021/11/15 07:25:51;;;;;;;60.65;37.00;;;;;;;6.10;100.00;102566.13;5071302;28;20032;-64
2021/11/15 07:28:17;;;;;;;59.67;35.85;;;;;;;6.11;100.00;102562.66;5067654;28;20035;-64
2021/11/15 07:30:43;;;;;;;64.15;38.92;;;;;;;6.06;100.00;102565.91;5062903;28;20031;-62
2021/11/15 07:33:09;;;;;;;63.25;38.70;;;;;;;6.08;100.00;102562.50;5064205;28;20396;-63
2021/11/15 07:35:35;;;;;;;61.85;37.42;;;;;;;6.01;100.00;102563.03;5065250;28;20033;-62
2021/11/15 07:38:00;;;;;;;63.55;37.70;;;;;;;6.01;100.00;102564.75;5067638;28;20024;-63
2021/11/15 07:40:25;;;;;;;65.03;39.53;;;;;;;6.02;100.00;102561.31;5070685;28;20017;-61
2021/11/15 07:42:51;;;;;;;64.57;38.05;;;;;;;6.05;100.00;102569.34;5070824;28;20028;-61
2021/11/15 07:45:17;;;;;;;65.18;38.85;;;;;;;6.07;100.00;102565.06;5071084;28;20059;-61
2021/11/15 07:47:43;;;;;;;65.57;38.80;;;;;;;6.04;100.00;102562.28;5071303;28;20448;-64
2021/11/15 07:50:11;;;;;;;64.70;38.40;;;;;;;6.05;100.00;102564.97;5070045;28;20119;-63
2021/11/15 07:52:37;;;;;;;65.18;38.78;;;;;;;6.08;100.00;102567.75;5064428;28;20505;-62
2021/11/15 07:55:08;;;;;;;66.95;39.58;;;;;;;6.09;100.00;102563.44;5061972;28;20063;-64
2021/11/15 07:57:34;;;;;;;63.88;38.25;;;;;;;6.08;100.00;102572.13;5064295;28;20017;-63
2021/11/15 07:59:59;;;;;;;63.40;37.10;;;;;;;6.13;100.00;102567.09;5062317;28;20074;-63
2021/11/15 08:02:25;;;;;;;63.03;38.70;;;;;;;6.11;100.00;102569.66;5063577;28;20031;-63
2021/11/15 08:04:51;;;;;;;61.42;36.90;;;;;;;6.13;100.00;102573.28;5066337;28;20472;-61
2021/11/15 08:07:16;;;;;;;59.63;36.53;;;;;;;6.13;100.00;102578.53;5071166;28;20032;-62
2021/11/15 08:09:42;;;;;;;60.05;37.13;;;;;;;6.10;100.00;102584.50;5069872;28;20028;-62
2021/11/15 08:12:09;;;;;;;62.90;37.60;;;;;;;6.11;100.00;102585.41;5070414;28;20021;-61
2021/11/15 08:14:39;;;;;;;61.33;35.97;;;;;;;6.08;100.00;102583.50;5065390;28;20059;-64
2021/11/15 08:17:04;;;;;;;59.05;35.60;;;;;;;6.04;100.00;102567.53;5068075;28;20032;-65
2021/11/15 08:19:30;;;;;;;63.20;37.58;;;;;;;6.00;100.00;102568.19;5070951;28;20115;-65
2021/11/15 08:21:57;;;;;;;61.97;37.30;;;;;;;6.00;100.00;102566.50;5070997;28;20021;-62
2021/11/15 08:24:29;;;;;;;62.92;37.45;;;;;;;6.03;100.00;102569.28;5070882;28;20032;-62
2021/11/15 08:27:00;;;;;;;63.63;37.58;;;;;;;6.04;100.00;102564.91;5068191;28;20036;-63
2021/11/15 08:29:26;;;;;;;62.70;37.80;;;;;;;6.09;100.00;102563.44;5061476;28;20024;-62
2021/11/15 08:31:54;;;;;;;65.57;38.05;;;;;;;6.13;100.00;102564.47;5062659;28;20421;-62
2021/11/15 08:34:20;;;;;;;65.22;37.78;;;;;;;6.17;100.00;102555.94;5063625;28;20036;-62
2021/11/15 08:36:47;;;;;;;61.00;36.47;;;;;;;6.22;100.00;102562.31;5063625;28;20037;-61
2021/11/15 08:39:24;;;;;;;66.85;38.22;;;;;;;6.21;100.00;102565.75;5069497;28;20025;-61
2021/11/15 08:41:53;;;;;;;65.20;38.38;;;;;;;6.19;100.00;102570.94;5070384;28;20487;-70
2021/11/15 08:44:20;;;;;;;66.00;38.60;;;;;;;6.20;100.00;102563.94;5070672;28;20040;-69
2021/11/15 08:46:47;;;;;;;63.45;37.60;;;;;;;6.19;100.00;102564.75;5070466;28;20029;-71
2021/11/15 08:49:14;;;;;;;63.92;38.13;;;;;;;6.17;100.00;102559.44;5070645;28;20032;-68
2021/11/15 08:51:41;;;;;;;60.65;37.47;;;;;;;6.15;100.00;102565.47;5065445;28;20040;-68
2021/11/15 08:54:09;;;;;;;63.88;39.78;;;;;;;6.11;100.00;102565.28;5065256;28;20032;-68
2021/11/15 08:56:37;;;;;;;62.47;38.22;;;;;;;6.15;100.00;102565.47;5062686;28;20038;-66
2021/11/15 08:59:02;;;;;;;62.50;37.70;;;;;;;6.14;100.00;102567.16;5064790;28;20368;-68
2021/11/15 09:01:28;;;;;;;59.85;36.60;;;;;;;6.19;100.00;102562.13;5064438;28;20031;-69
2021/11/15 09:03:53;;;;;;;60.47;38.22;;;;;;;6.15;100.00;102563.72;5066430;28;20032;-68
2021/11/15 09:06:20;;;;;;;62.05;37.38;;;;;;;6.13;100.00;102557.50;5063748;28;20056;-67
2021/11/15 09:08:46;;;;;;;61.75;37.13;;;;;;;6.13;100.00;102568.03;5063277;28;20048;-68
2021/11/15 09:11:13;;;;;;;63.92;39.47;;;;;;;6.16;100.00;102575.13;5066867;28;20032;-62
2021/11/15 09:13:41;;;;;;;61.00;37.67;;;;;;;6.15;100.00;102571.59;5064752;28;20406;-70
2021/11/15 09:16:07;;;;;;;58.10;36.75;;;;;;;6.22;100.00;102578.09;5065828;28;20107;-70
2021/11/15 09:18:33;;;;;;;67.53;40.40;;;;;;;6.15;100.00;102576.84;5065028;28;20063;-72
2021/11/15 09:20:59;;;;;;;59.03;36.13;;;;;;;6.20;100.00;102584.97;5064722;28;20052;-70
2021/11/15 09:23:25;;;;;;;62.15;37.90;;;;;;;6.23;100.00;102570.28;5065915;28;20453;-69
2021/11/15 09:25:51;;;;;;;62.80;38.53;;;;;;;6.21;100.00;102565.75;5063439;28;20337;-72
2021/11/15 09:28:17;;;;;;;62.38;39.53;;;;;;;6.19;100.00;102557.81;5067053;28;20024;-71
2021/11/15 09:30:43;;;;;;;58.78;36.45;;;;;;;6.19;100.00;102557.81;5064928;28;20039;-70
2021/11/15 09:33:11;;;;;;;61.03;38.03;;;;;;;6.20;100.00;102563.94;5062735;28;20045;-65
2021/11/15 09:35:42;;;;;;;61.72;38.38;;;;;;;6.16;100.00;102560.28;5064174;28;20095;-66
2021/11/15 09:38:08;;;;;;;62.28;37.63;;;;;;;6.11;100.00;102556.53;5065425;28;20037;-69
2021/11/15 09:40:33;;;;;;;59.00;36.97;;;;;;;6.12;100.00;102566.22;5064138;28;20039;-72
2021/11/15 09:42:59;;;;;;;63.03;38.38;;;;;;;6.10;100.00;102570.47;5063978;28;20039;-66
2021/11/15 09:45:26;;;;;;;60.60;37.10;;;;;;;6.12;100.00;102566.22;5062845;28;20463;-71
2021/11/15 09:47:55;;;;;;;60.05;38.35;;;;;;;6.09;100.00;102561.69;5065101;28;20029;-72
2021/11/15 09:50:20;;;;;;;65.13;39.22;;;;;;;6.14;100.00;102554.03;5064130;28;20104;-70
2021/11/15 09:52:46;;;;;;;62.33;38.22;;;;;;;6.14;100.00;102571.53;5063206;28;20105;-68
2021/11/15 09:55:12;;;;;;;60.80;36.63;;;;;;;6.17;100.00;102569.94;5065623;28;20063;-64
2021/11/15 09:57:41;;;;;;;61.28;38.33;;;;;;;6.21;100.00;102573.66;5062795;28;20045;-69
2021/11/15 10:00:10;;;;;;;61.28;38.10;;;;;;;6.26;100.00;102567.78;5062669;28;20488;-69
2021/11/15 10:02:37;;;;;;;62.47;36.60;;;;;;;6.24;100.00;102572.06;5062739;28;20111;-65
2021/11/15 10:05:06;;;;;;;60.40;36.53;;;;;;;6.23;100.00;102566.72;5065801;28;20028;-62
2021/11/15 10:07:52;;;;;;;60.15;36.83;;;;;;;6.24;100.00;102561.53;5061874;28;20087;-61
2021/11/15 10:10:34;;;;;;;59.65;36.58;;;;;;;6.30;100.00;102562.69;5063771;28;20024;-63
2021/11/15 10:13:07;;;;;;;60.42;36.28;;;;;;;6.23;100.00;102564.09;5063216;28;20039;-64
2021/11/15 10:15:57;;;;;;;61.35;36.72;;;;;;;6.27;100.00;102568.69;5065635;28;20078;-62
2021/11/15 10:18:51;;;;;;;59.38;35.55;;;;;;;6.27;100.00;102566.94;5064283;28;20048;-62
2021/11/15 10:21:18;;;;;;;61.72;35.03;;;;;;;6.24;100.00;102565.91;5063233;28;20025;-62
2021/11/15 10:23:55;;;;;;;64.50;37.15;;;;;;;6.26;100.00;102565.16;5064330;28;20490;-62
2021/11/15 10:26:38;;;;;;;65.28;38.45;;;;;;;6.22;100.00;102560.59;5062384;28;20373;-62
2021/11/15 10:29:03;;;;;;;64.18;37.70;;;;;;;6.16;100.00;102551.50;5062104;28;20029;-61
2021/11/15 10:31:39;;;;;;;62.78;35.90;;;;;;;6.17;100.00;102551.56;5064266;28;20518;-62
2021/11/15 10:34:09;;;;;;;62.22;33.30;;;;;;;6.12;100.00;102553.06;5061290;28;20484;-62
2021/11/15 10:37:09;;;;;;;58.47;33.05;;;;;;;6.11;100.00;102535.50;5065169;28;20491;-62
2021/11/15 10:39:37;;;;;;;59.78;34.53;;;;;;;6.14;100.00;102542.66;5030256;28;20069;-63
2021/11/15 10:42:08;;;;;;;60.53;34.72;;;;;;;6.10;100.00;102541.56;5027893;28;20473;-62
2021/11/15 10:44:36;;;;;;;62.03;34.85;;;;;;;6.09;100.00;102537.19;5016486;28;20029;-62
2021/11/15 10:47:02;;;;;;;58.58;34.28;;;;;;;6.10;100.00;102534.63;5036163;28;20037;-61
2021/11/15 10:49:28;;;;;;;58.55;33.80;;;;;;;6.10;100.00;102529.38;5029953;28;20137;-62
2021/11/15 10:52:06;;;;;;;58.13;32.85;;;;;;;6.08;100.00;102531.00;5033339;28;20045;-61
2021/11/15 10:57:22;;;;;;;59.05;34.15;;;;;;;6.08;100.00;102538.00;5030081;28;20160;-62
2021/11/15 11:00:06;;;;;;;57.78;31.83;;;;;;;6.12;100.00;102534.69;5032163;28;20124;-62
2021/11/15 11:02:35;;;;;;;61.88;34.65;;;;;;;6.09;100.00;102545.94;5032711;28;20056;-62
2021/11/15 11:05:05;;;;;;;63.83;34.90;;;;;;;6.09;100.00;102539.81;5028553;28;20035;-62
2021/11/15 11:07:31;;;;;;;61.40;34.40;;;;;;;6.14;100.00;102545.28;5032012;28;20454;-62
2021/11/15 11:10:00;;;;;;;63.67;34.20;;;;;;;6.15;100.00;102545.34;5033565;28;20113;-62
2021/11/15 11:12:33;;;;;;;55.67;32.17;;;;;;;6.18;100.00;102545.50;5035618;28;20029;-64